createdAt,value
2022-08-22T00:01:37.086Z,99764.31
2022-08-22T00:02:56.591Z,99754.00
2022-08-22T00:03:11.074Z,99774.63
2022-08-22T00:04:13.278Z,99776.09
2022-08-22T00:06:50.917Z,99778.56
2022-08-22T00:09:31.574Z,99767.03
2022-08-22T00:12:07.783Z,99764.78
2022-08-22T00:14:40.920Z,99763.41
2022-08-22T00:17:26.998Z,99758.25
2022-08-22T00:20:02.874Z,99756.50
2022-08-22T00:22:35.780Z,99756.94
2022-08-22T00:25:24.671Z,99766.72
2022-08-22T00:27:56.669Z,99765.91
2022-08-22T00:30:23.979Z,99762.97
2022-08-22T00:32:59.040Z,99767.47
2022-08-22T00:35:32.301Z,99750.44
2022-08-22T00:38:05.984Z,99771.34
2022-08-22T00:40:47.974Z,99761.50
2022-08-22T00:43:52.735Z,99758.00
2022-08-22T00:46:48.473Z,99752.50
2022-08-22T00:49:31.113Z,99737.06
2022-08-22T00:52:22.703Z,99760.22
2022-08-22T00:55:04.071Z,99759.38
2022-08-22T00:57:46.956Z,99767.78
2022-08-22T01:00:18.456Z,99755.19
2022-08-22T01:03:09.463Z,99761.97
2022-08-22T01:05:50.639Z,99768.06
2022-08-22T01:08:35.655Z,99761.88
2022-08-22T01:11:16.810Z,99761.34
2022-08-22T01:14:07.139Z,99756.94
2022-08-22T01:16:52.575Z,99763.25
2022-08-22T01:19:51.824Z,99761.09
2022-08-22T01:22:48.979Z,99749.22
2022-08-22T01:25:53.876Z,99758.34
2022-08-22T01:29:08.489Z,99762.22
2022-08-22T01:32:28.641Z,99753.88
2022-08-22T01:35:15.783Z,99764.03
2022-08-22T01:38:12.597Z,99756.75
2022-08-22T01:41:14.823Z,99750.25
2022-08-22T01:43:59.602Z,99754.31
2022-08-22T01:46:46.901Z,99748.97
2022-08-22T01:49:19.083Z,99743.16
2022-08-22T01:51:53.839Z,99746.53
2022-08-22T01:54:44.535Z,99740.72
2022-08-22T01:57:12.431Z,99754.34
2022-08-22T01:59:42.993Z,99747.00
2022-08-22T02:02:23.220Z,99753.88
2022-08-22T02:05:01.582Z,99749.13
2022-08-22T02:07:40.066Z,99749.34
2022-08-22T02:10:15.813Z,99745.59
2022-08-22T02:12:45.683Z,99747.63
2022-08-22T02:15:22.075Z,99757.59
2022-08-22T02:18:02.329Z,99747.63
2022-08-22T02:20:33.696Z,99742.34
2022-08-22T02:23:09.144Z,99721.63
2022-08-22T02:25:51.343Z,99735.75
2022-08-22T02:28:31.865Z,99740.69
2022-08-22T02:31:05.492Z,99740.00
2022-08-22T02:33:38.477Z,99735.66
2022-08-22T02:36:18.580Z,99733.75
2022-08-22T02:38:58.509Z,99723.44
2022-08-22T02:41:32.626Z,99725.72
2022-08-22T02:44:03.339Z,99733.25
2022-08-22T02:46:41.577Z,99736.88
2022-08-22T02:49:16.871Z,99725.03
2022-08-22T02:51:53.079Z,99739.81
2022-08-22T02:54:26.883Z,99731.88
2022-08-22T02:57:00.764Z,99731.63
2022-08-22T02:59:34.769Z,99724.63
2022-08-22T03:02:25.323Z,99730.31
2022-08-22T03:04:54.425Z,99740.38
2022-08-22T03:07:33.420Z,99737.16
2022-08-22T03:10:13.288Z,99725.84
2022-08-22T03:12:47.315Z,99715.22
2022-08-22T03:15:23.663Z,99715.53
2022-08-22T03:17:55.521Z,99723.16
2022-08-22T03:20:45.376Z,99721.50
2022-08-22T03:23:20.385Z,99723.25
2022-08-22T03:25:54.617Z,99722.88
2022-08-22T03:28:27.742Z,99714.19
2022-08-22T03:31:00.641Z,99705.72
2022-08-22T03:33:29.867Z,99711.97
2022-08-22T03:36:06.896Z,99717.22
2022-08-22T03:39:16.567Z,99703.97
2022-08-22T03:42:12.132Z,99699.31
2022-08-22T03:44:58.477Z,99709.75
2022-08-22T03:48:01.266Z,99709.06
2022-08-22T03:51:06.198Z,99692.13
2022-08-22T03:53:48.531Z,99693.53
2022-08-22T03:56:47.914Z,99702.44
2022-08-22T03:59:48.672Z,99686.31
2022-08-22T04:02:43.492Z,99687.78
2022-08-22T04:05:41.081Z,99692.75
2022-08-22T04:08:28.879Z,99698.81
2022-08-22T04:11:16.614Z,99689.81
2022-08-22T04:13:58.616Z,99697.56
2022-08-22T04:17:00.155Z,99694.16
2022-08-22T04:19:57.464Z,99697.56
2022-08-22T04:22:39.907Z,99700.16
2022-08-22T04:25:11.618Z,99704.19
2022-08-22T04:27:52.107Z,99690.44
2022-08-22T04:30:25.284Z,99700.81
2022-08-22T04:33:00.759Z,99697.22
2022-08-22T04:35:31.167Z,99706.41
2022-08-22T04:38:02.584Z,99698.59
2022-08-22T04:40:36.008Z,99701.47
2022-08-22T04:43:10.900Z,99694.41
2022-08-22T04:45:41.437Z,99694.69
2022-08-22T04:48:17.621Z,99689.69
2022-08-22T04:50:51.790Z,99693.34
2022-08-22T04:53:30.122Z,99696.53
2022-08-22T04:56:07.614Z,99707.97
2022-08-22T04:58:45.275Z,99704.16
2022-08-22T05:01:18.376Z,99697.44
2022-08-22T05:03:52.794Z,99695.72
2022-08-22T05:06:23.360Z,99697.63
2022-08-22T05:08:54.160Z,99706.28
2022-08-22T05:11:23.871Z,99704.16
2022-08-22T05:13:55.079Z,99706.09
2022-08-22T05:16:29.334Z,99709.09
2022-08-22T05:19:02.526Z,99710.81
2022-08-22T05:21:32.294Z,99708.72
2022-08-22T05:24:05.132Z,99716.50
2022-08-22T05:26:38.528Z,99704.63
2022-08-22T05:29:09.512Z,99717.13
2022-08-22T05:31:41.880Z,99701.25
2022-08-22T05:34:13.862Z,99704.91
2022-08-22T05:36:45.119Z,99707.53
2022-08-22T05:39:15.556Z,99701.44
2022-08-22T05:42:14.618Z,99677.91
2022-08-22T05:44:41.479Z,99697.94
2022-08-22T05:47:21.234Z,99711.31
2022-08-22T05:49:57.661Z,99715.72
2022-08-22T05:52:36.992Z,99717.91
2022-08-22T05:55:17.208Z,99717.22
2022-08-22T05:57:49.984Z,99720.00
2022-08-22T06:00:21.587Z,99715.28
2022-08-22T06:03:03.245Z,99717.69
2022-08-22T06:05:34.421Z,99716.09
2022-08-22T06:08:06.492Z,99718.56
2022-08-22T06:10:40.968Z,99725.00
2022-08-22T06:13:12.004Z,99728.69
2022-08-22T06:15:49.668Z,99724.34
2022-08-22T06:18:22.510Z,99735.50
2022-08-22T06:20:54.853Z,99733.59
2022-08-22T06:23:26.196Z,99731.53
2022-08-22T06:25:57.816Z,99727.66
2022-08-22T06:28:26.901Z,99738.31
2022-08-22T06:30:57.037Z,99725.78
2022-08-22T06:33:27.450Z,99736.84
2022-08-22T06:36:01.641Z,99740.50
2022-08-22T06:38:31.439Z,99737.78
2022-08-22T06:41:00.897Z,99734.25
2022-08-22T06:43:36.701Z,99733.38
2022-08-22T06:46:04.156Z,99734.31
2022-08-22T06:48:31.613Z,99739.22
2022-08-22T06:51:00.906Z,99735.34
2022-08-22T06:53:32.686Z,99742.22
2022-08-22T06:56:01.768Z,99742.69
2022-08-22T06:58:34.224Z,99736.63
2022-08-22T07:01:12.205Z,99733.44
2022-08-22T07:03:43.786Z,99733.00
2022-08-22T07:06:15.806Z,99734.06
2022-08-22T07:08:42.588Z,99731.75
2022-08-22T07:11:15.690Z,99740.81
2022-08-22T07:13:45.601Z,99733.22
2022-08-22T07:16:12.514Z,99740.59
2022-08-22T07:18:47.127Z,99734.97
2022-08-22T07:21:24.912Z,99736.66
2022-08-22T07:23:52.427Z,99741.38
2022-08-22T07:26:28.955Z,99728.50
2022-08-22T07:28:59.619Z,99722.69
2022-08-22T07:31:35.165Z,99735.56
2022-08-22T07:34:16.314Z,99737.50
2022-08-22T07:36:49.725Z,99729.78
2022-08-22T07:39:25.938Z,99733.19
2022-08-22T07:42:06.491Z,99734.53
2022-08-22T07:44:43.877Z,99728.22
2022-08-22T07:47:15.202Z,99738.19
2022-08-22T07:49:53.040Z,99739.75
2022-08-22T07:52:22.854Z,99747.81
2022-08-22T07:54:54.524Z,99738.88
2022-08-22T07:57:26.746Z,99739.03
2022-08-22T07:59:55.986Z,99745.41
2022-08-22T08:02:24.231Z,99746.38
2022-08-22T08:04:54.428Z,99745.56
2022-08-22T08:07:26.458Z,99741.28
2022-08-22T08:09:57.577Z,99740.97
2022-08-22T08:12:30.476Z,99738.22
2022-08-22T08:14:58.665Z,99731.69
2022-08-22T08:17:32.058Z,99734.84
2022-08-22T08:20:03.700Z,99727.53
2022-08-22T08:22:33.421Z,99721.06
2022-08-22T08:25:01.945Z,99725.06
2022-08-22T08:27:31.132Z,99724.78
2022-08-22T08:30:02.173Z,99718.22
2022-08-22T08:32:32.243Z,99714.81
2022-08-22T08:35:02.267Z,99708.91
2022-08-22T08:37:36.452Z,99709.09
2022-08-22T08:40:18.097Z,99707.59
2022-08-22T08:43:01.478Z,99706.28
2022-08-22T08:46:02.162Z,99694.84
2022-08-22T08:49:06.396Z,99688.59
2022-08-22T08:51:57.140Z,99688.75
2022-08-22T08:54:49.190Z,99703.88
2022-08-22T08:57:28.268Z,99700.34
2022-08-22T09:00:05.707Z,99703.28
2022-08-22T09:02:48.023Z,99693.31
2022-08-22T09:05:35.800Z,99696.03
2022-08-22T09:08:29.047Z,99681.28
2022-08-22T09:14:21.186Z,99676.50
2022-08-22T09:17:09.707Z,99679.47
2022-08-22T09:20:03.593Z,99679.91
2022-08-22T09:23:18.503Z,99680.56
2022-08-22T09:25:50.359Z,99672.16
2022-08-22T09:28:24.426Z,99682.13
2022-08-22T09:37:06.012Z,99663.41
2022-08-22T09:39:45.708Z,99661.84
2022-08-22T09:42:23.814Z,99659.09
2022-08-22T09:48:43.580Z,99658.25
2022-08-22T09:51:32.686Z,99665.66
2022-08-22T09:57:37.629Z,99655.06
2022-08-22T10:00:22.702Z,99656.78
2022-08-22T10:03:02.716Z,99657.94
2022-08-22T10:05:35.198Z,99652.25
2022-08-22T10:08:31.952Z,99656.63
2022-08-22T10:11:24.583Z,99655.59
2022-08-22T10:14:01.311Z,99648.16
2022-08-22T10:16:57.059Z,99653.38
2022-08-22T10:19:29.872Z,99646.38
2022-08-22T10:22:30.250Z,99649.91
2022-08-22T10:25:09.791Z,99654.69
2022-08-22T10:27:55.020Z,99646.09
2022-08-22T10:30:27.646Z,99636.63
2022-08-22T10:33:03.248Z,99646.59
2022-08-22T10:35:37.537Z,99647.59
2022-08-22T10:38:12.405Z,99645.72
2022-08-22T10:40:43.028Z,99643.94
2022-08-22T10:43:13.925Z,99642.81
2022-08-22T10:45:45.175Z,99633.38
2022-08-22T10:48:35.224Z,99638.44
2022-08-22T10:51:18.177Z,99625.59
2022-08-22T10:53:57.516Z,99623.00
2022-08-22T10:56:29.468Z,99625.88
2022-08-22T10:59:06.995Z,99623.28
2022-08-22T11:01:43.999Z,99618.91
2022-08-22T11:04:27.982Z,99615.78
2022-08-22T11:07:09.414Z,99612.72
2022-08-22T11:09:42.172Z,99617.34
2022-08-22T11:12:20.016Z,99617.91
2022-08-22T11:15:09.144Z,99610.16
2022-08-22T11:18:07.878Z,99602.31
2022-08-22T11:20:53.295Z,99603.59
2022-08-22T11:23:36.467Z,99603.06
2022-08-22T11:26:13.562Z,99610.06
2022-08-22T11:29:13.181Z,99604.94
2022-08-22T11:31:51.389Z,99591.72
2022-08-22T11:34:31.439Z,99602.09
2022-08-22T11:37:04.928Z,99602.56
2022-08-22T11:39:43.305Z,99598.13
2022-08-22T11:42:21.911Z,99586.75
2022-08-22T11:44:53.896Z,99595.59
2022-08-22T11:47:26.764Z,99587.53
2022-08-22T11:50:02.583Z,99594.50
2022-08-22T11:52:56.890Z,99590.00
2022-08-22T11:55:34.630Z,99592.06
2022-08-22T11:58:22.477Z,99586.75
2022-08-22T12:01:00.253Z,99585.91
2022-08-22T12:03:43.395Z,99586.72
2022-08-22T12:06:30.446Z,99586.69
2022-08-22T12:09:15.660Z,99584.72
2022-08-22T12:11:56.452Z,99577.53
2022-08-22T12:14:31.799Z,99579.78
2022-08-22T12:17:10.761Z,99574.63
2022-08-22T12:20:16.065Z,99576.66
2022-08-22T12:23:02.458Z,99582.00
2022-08-22T12:25:49.421Z,99572.41
2022-08-22T12:28:27.912Z,99574.09
2022-08-22T12:31:14.331Z,99572.19
2022-08-22T12:34:11.553Z,99571.69
2022-08-22T12:36:58.618Z,99563.78
2022-08-22T12:39:41.095Z,99571.66
2022-08-22T12:42:21.536Z,99573.41
2022-08-22T12:45:05.899Z,99562.38
2022-08-22T12:47:44.374Z,99562.59
2022-08-22T12:50:25.038Z,99560.47
2022-08-22T12:53:10.481Z,99562.94
2022-08-22T12:55:52.848Z,99561.44
2022-08-22T12:58:34.581Z,99562.38
2022-08-22T13:01:06.349Z,99557.25
2022-08-22T13:03:36.908Z,99557.78
2022-08-22T13:06:25.184Z,99559.22
2022-08-22T13:08:52.867Z,99560.97
2022-08-22T13:11:22.971Z,99553.19
2022-08-22T13:14:06.705Z,99548.72
2022-08-22T13:16:48.994Z,99541.03
2022-08-22T13:19:22.722Z,99534.84
2022-08-22T13:21:55.000Z,99548.97
2022-08-22T13:24:38.453Z,99538.47
2022-08-22T13:27:14.119Z,99548.72
2022-08-22T13:29:49.373Z,99542.28
2022-08-22T13:32:23.438Z,99548.03
2022-08-22T13:34:53.454Z,99533.97
2022-08-22T13:37:25.717Z,99533.16
2022-08-22T13:40:02.565Z,99527.28
2022-08-22T13:42:32.231Z,99530.78
2022-08-22T13:45:04.679Z,99528.34
2022-08-22T13:47:35.819Z,99531.41
2022-08-22T13:50:12.373Z,99537.03
2022-08-22T13:52:52.313Z,99536.66
2022-08-22T13:55:29.606Z,99538.47
2022-08-22T13:58:00.714Z,99532.25
2022-08-22T14:01:06.031Z,99538.22
2022-08-22T14:03:40.927Z,99533.09
2022-08-22T14:06:35.241Z,99513.75
2022-08-22T14:09:14.272Z,99525.06
2022-08-22T14:11:45.895Z,99521.25
2022-08-22T14:14:19.935Z,99516.13
2022-08-22T14:16:49.428Z,99517.38
2022-08-22T14:19:27.393Z,99520.84
2022-08-22T14:21:59.570Z,99518.94
2022-08-22T14:24:31.480Z,99520.44
2022-08-22T14:27:05.559Z,99527.44
2022-08-22T14:29:41.962Z,99517.63
2022-08-22T14:32:32.568Z,99518.63
2022-08-22T14:35:21.669Z,99518.25
2022-08-22T14:38:17.473Z,99516.97
2022-08-22T14:40:47.115Z,99516.50
2022-08-22T14:43:22.334Z,99508.81
2022-08-22T14:45:56.876Z,99490.53
2022-08-22T14:48:39.291Z,99501.25
2022-08-22T14:51:17.667Z,99504.84
2022-08-22T14:53:48.505Z,99491.25
2022-08-22T14:56:20.823Z,99489.81
2022-08-22T14:58:55.337Z,99507.13
2022-08-22T15:01:25.030Z,99482.97
2022-08-22T15:03:54.780Z,99483.28
2022-08-22T15:06:37.080Z,99492.06
2022-08-22T15:09:08.339Z,99484.91
2022-08-22T15:11:37.309Z,99480.47
2022-08-22T15:14:13.686Z,99477.66
2022-08-22T15:16:45.139Z,99464.69
2022-08-22T15:19:23.958Z,99468.50
2022-08-22T15:22:06.958Z,99464.81
2022-08-22T15:24:39.206Z,99463.88
2022-08-22T15:27:10.326Z,99475.81
2022-08-22T15:29:50.428Z,99471.75
2022-08-22T15:32:22.202Z,99463.22
2022-08-22T15:34:52.377Z,99465.72
2022-08-22T15:37:33.081Z,99452.53
2022-08-22T15:40:10.332Z,99461.28
2022-08-22T15:42:42.254Z,99459.84
2022-08-22T15:45:20.286Z,99460.66
2022-08-22T15:47:52.498Z,99455.53
2022-08-22T15:50:35.031Z,99454.69
2022-08-22T15:53:24.430Z,99463.78
2022-08-22T15:56:23.437Z,99451.38
2022-08-22T15:59:09.102Z,99452.72
2022-08-22T16:01:52.782Z,99462.34
2022-08-22T16:04:35.668Z,99457.44
2022-08-22T16:07:17.962Z,99454.59
2022-08-22T16:13:41.190Z,99456.31
2022-08-22T16:16:13.364Z,99469.34
2022-08-22T16:19:30.926Z,99469.22
2022-08-22T16:22:23.489Z,99466.34
2022-08-22T16:25:12.541Z,99455.91
2022-08-22T16:27:55.754Z,99467.03
2022-08-22T16:30:38.575Z,99459.53
2022-08-22T16:33:14.840Z,99456.03
2022-08-22T16:39:11.442Z,99469.31
2022-08-22T16:41:42.347Z,99453.84
2022-08-22T16:44:40.730Z,99458.38
2022-08-22T16:47:14.683Z,99466.34
2022-08-22T16:49:56.953Z,99460.22
2022-08-22T16:52:53.086Z,99468.16
2022-08-22T16:55:56.355Z,99463.88
2022-08-22T16:59:06.082Z,99464.00
2022-08-22T17:01:56.353Z,99459.72
2022-08-22T17:04:35.223Z,99467.13
2022-08-22T17:07:34.100Z,99453.03
2022-08-22T17:10:27.009Z,99462.19
2022-08-22T17:13:06.968Z,99468.97
2022-08-22T17:15:52.671Z,99463.69
2022-08-22T17:18:35.572Z,99451.63
2022-08-22T17:21:11.399Z,99463.81
2022-08-22T17:23:53.533Z,99453.34
2022-08-22T17:26:37.682Z,99456.44
2022-08-22T17:29:15.382Z,99458.50
2022-08-22T17:31:50.627Z,99468.13
2022-08-22T17:34:33.461Z,99458.66
2022-08-22T17:37:10.331Z,99460.03
2022-08-22T17:40:01.290Z,99458.34
2022-08-22T17:42:57.135Z,99464.38
2022-08-22T17:45:36.807Z,99465.53
2022-08-22T17:48:12.314Z,99459.50
2022-08-22T17:50:44.631Z,99456.47
2022-08-22T17:53:25.300Z,99463.88
2022-08-22T17:56:02.281Z,99470.09
2022-08-22T17:58:43.510Z,99458.81
2022-08-22T18:01:14.926Z,99471.34
2022-08-22T18:03:49.958Z,99470.69
2022-08-22T18:06:21.613Z,99473.28
2022-08-22T18:11:47.661Z,99466.63
2022-08-22T18:14:25.568Z,99472.44
2022-08-22T18:16:55.484Z,99469.47
2022-08-22T18:19:39.840Z,99483.00
2022-08-22T18:22:10.990Z,99485.00
2022-08-22T18:24:44.560Z,99485.44
2022-08-22T18:27:30.081Z,99488.91
2022-08-22T18:30:15.414Z,99472.16
2022-08-22T18:32:51.249Z,99499.22
2022-08-22T18:35:27.445Z,99480.56
2022-08-22T18:38:02.563Z,99488.28
2022-08-22T18:40:46.923Z,99493.25
2022-08-22T18:43:19.958Z,99484.41
2022-08-22T18:46:25.308Z,99487.88
2022-08-22T18:49:14.080Z,99490.22
2022-08-22T18:51:41.298Z,99503.13
2022-08-22T18:54:36.649Z,99488.28
2022-08-22T18:57:25.872Z,99498.16
2022-08-22T19:00:06.207Z,99491.44
2022-08-22T19:02:55.932Z,99496.38
2022-08-22T19:06:08.289Z,99505.78
2022-08-22T19:08:57.663Z,99504.75
2022-08-22T19:11:39.651Z,99499.59
2022-08-22T19:14:15.185Z,99495.72
2022-08-22T19:17:02.383Z,99507.75
2022-08-22T19:19:41.736Z,99505.16
2022-08-22T19:22:24.692Z,99516.91
2022-08-22T19:25:14.598Z,99519.97
2022-08-22T19:27:43.838Z,99502.56
2022-08-22T19:30:40.333Z,99517.59
2022-08-22T19:33:10.694Z,99531.09
2022-08-22T19:36:06.943Z,99522.91
2022-08-22T19:38:57.889Z,99530.88
2022-08-22T19:41:45.468Z,99535.16
2022-08-22T19:44:33.508Z,99520.09
2022-08-22T19:47:07.197Z,99535.16
2022-08-22T19:49:39.679Z,99530.63
2022-08-22T19:52:19.086Z,99525.94
2022-08-22T19:54:54.372Z,99530.41
2022-08-22T19:57:34.011Z,99527.34
2022-08-22T20:00:06.128Z,99533.75
2022-08-22T20:03:14.269Z,99534.13
2022-08-22T20:05:57.023Z,99532.59
2022-08-22T20:08:54.466Z,99513.84
2022-08-22T20:11:38.809Z,99534.91
2022-08-22T20:14:30.650Z,99534.03
2022-08-22T20:17:02.171Z,99541.59
2022-08-22T20:19:38.164Z,99531.69
2022-08-22T20:22:07.874Z,99540.31
2022-08-22T20:24:40.048Z,99527.63
2022-08-22T20:27:16.230Z,99533.03
2022-08-22T20:29:49.909Z,99524.41
2022-08-22T20:32:23.319Z,99520.78
2022-08-22T20:34:55.278Z,99520.47
2022-08-22T20:37:45.477Z,99522.94
2022-08-22T20:40:55.897Z,99519.97
2022-08-22T20:43:30.770Z,99519.84
2022-08-22T20:46:12.706Z,99530.78
2022-08-22T20:48:47.021Z,99518.31
2022-08-22T20:51:17.404Z,99531.91
2022-08-22T20:53:51.709Z,99513.97
2022-08-22T20:56:31.840Z,99508.38
2022-08-22T20:59:01.206Z,99513.38
2022-08-22T21:01:32.331Z,99520.22
2022-08-22T21:03:59.421Z,99519.56
2022-08-22T21:06:32.062Z,99520.47
2022-08-22T21:09:10.831Z,99513.47
2022-08-22T21:11:39.756Z,99518.88
2022-08-22T21:14:19.024Z,99520.66
2022-08-22T21:16:48.257Z,99526.25
2022-08-22T21:19:20.598Z,99524.97
2022-08-22T21:21:47.485Z,99520.97
2022-08-22T21:24:14.557Z,99516.66
2022-08-22T21:27:00.843Z,99523.56
2022-08-22T21:29:32.682Z,99522.00
2022-08-22T21:32:18.649Z,99513.66
2022-08-22T21:34:49.013Z,99519.41
2022-08-22T21:37:18.197Z,99518.50
2022-08-22T21:39:53.556Z,99514.91
2022-08-22T21:42:37.498Z,99520.75
2022-08-22T21:45:07.875Z,99529.06
2022-08-22T21:47:38.440Z,99523.88
2022-08-22T21:50:13.692Z,99510.31
2022-08-22T21:52:44.092Z,99515.91
2022-08-22T21:55:27.589Z,99524.03
2022-08-22T21:58:12.593Z,99506.03
2022-08-22T22:00:49.017Z,99518.91
2022-08-22T22:03:21.449Z,99516.56
2022-08-22T22:05:49.316Z,99521.13
2022-08-22T22:08:17.092Z,99521.59
2022-08-22T22:10:45.830Z,99522.69
2022-08-22T22:13:12.623Z,99530.19
2022-08-22T22:15:41.898Z,99503.69
2022-08-22T22:18:08.751Z,99524.28
2022-08-22T22:20:37.281Z,99519.75
2022-08-22T22:23:04.732Z,99520.28
2022-08-22T22:25:40.058Z,99518.22
2022-08-22T22:28:12.776Z,99513.81
2022-08-22T22:30:41.277Z,99515.94
2022-08-22T22:33:07.960Z,99527.91
2022-08-22T22:35:37.433Z,99532.31
2022-08-22T22:38:03.965Z,99538.19
2022-08-22T22:40:31.130Z,99535.47
2022-08-22T22:42:57.771Z,99540.00
2022-08-22T22:45:24.498Z,99537.41
2022-08-22T22:47:51.078Z,99545.06
2022-08-22T22:50:17.827Z,99546.50
2022-08-22T22:52:45.731Z,99538.47
2022-08-22T22:55:12.325Z,99538.34
2022-08-22T22:57:51.353Z,99544.28
2022-08-22T23:00:29.116Z,99539.41
2022-08-22T23:02:57.818Z,99540.66
2022-08-22T23:05:24.370Z,99531.38
2022-08-22T23:07:52.317Z,99530.78
2022-08-22T23:10:22.052Z,99537.97
2022-08-22T23:12:48.970Z,99537.47
2022-08-22T23:15:15.691Z,99533.63
2022-08-22T23:17:42.524Z,99531.69
2022-08-22T23:20:09.769Z,99527.31
2022-08-22T23:22:36.496Z,99533.38
2022-08-22T23:25:05.207Z,99530.31
2022-08-22T23:27:32.452Z,99534.31
2022-08-22T23:29:59.327Z,99540.81
2022-08-22T23:32:25.838Z,99536.25
2022-08-22T23:34:53.503Z,99540.66
2022-08-22T23:37:21.683Z,99536.47
2022-08-22T23:39:48.891Z,99536.09
2022-08-22T23:42:17.564Z,99538.66
2022-08-22T23:44:44.829Z,99532.03
2022-08-22T23:47:12.545Z,99535.69
2022-08-22T23:49:40.559Z,99539.59
2022-08-22T23:52:08.492Z,99534.25
2022-08-22T23:54:35.170Z,99529.16
2022-08-22T23:57:11.946Z,99528.00
2022-08-22T23:59:48.054Z,99525.72
